createdAt,value
2018-03-30T00:01:38.981Z,64.70
2018-03-30T00:04:04.982Z,64.70
2018-03-30T00:06:31.682Z,65.40
2018-03-30T00:08:57.662Z,65.50
2018-03-30T00:11:23.624Z,67.00
2018-03-30T00:13:49.714Z,66.50
2018-03-30T00:16:15.811Z,66.30
2018-03-30T00:18:41.796Z,66.30
2018-03-30T00:21:07.770Z,66.50
2018-03-30T00:23:33.761Z,66.20
2018-03-30T00:25:59.705Z,66.30
2018-03-30T00:28:26.418Z,65.80
2018-03-30T00:30:52.540Z,65.80
2018-03-30T00:33:18.496Z,66.60
2018-03-30T00:35:45.241Z,67.60
2018-03-30T00:38:11.947Z,68.40
2018-03-30T00:40:37.920Z,68.40
2018-03-30T00:43:03.907Z,68.90
2018-03-30T00:45:30.027Z,68.60
2018-03-30T00:47:55.980Z,69.00
2018-03-30T00:50:21.965Z,69.30
2018-03-30T00:52:47.924Z,68.60
2018-03-30T00:55:13.892Z,69.20
2018-03-30T00:57:39.854Z,68.20
2018-03-30T01:00:06.565Z,67.00
2018-03-30T01:02:32.664Z,66.90
2018-03-30T01:04:58.621Z,67.10
2018-03-30T01:07:24.600Z,66.90
2018-03-30T01:09:50.557Z,66.50
2018-03-30T01:12:16.509Z,66.90
2018-03-30T01:14:43.358Z,66.80
2018-03-30T01:17:10.064Z,67.20
2018-03-30T01:19:36.168Z,67.20
2018-03-30T01:22:02.152Z,67.00
2018-03-30T01:24:28.970Z,69.10
2018-03-30T01:26:55.678Z,68.60
2018-03-30T01:29:21.675Z,68.60
2018-03-30T01:31:47.635Z,68.40
2018-03-30T01:34:13.580Z,68.20
2018-03-30T01:36:39.660Z,68.10
2018-03-30T01:39:05.604Z,67.90
2018-03-30T01:41:31.758Z,68.20
2018-03-30T01:43:57.751Z,68.60
2018-03-30T01:46:24.508Z,67.60
2018-03-30T01:48:50.478Z,67.60
2018-03-30T01:51:16.459Z,67.80
2018-03-30T01:53:42.406Z,68.40
2018-03-30T01:56:08.343Z,68.40
2018-03-30T01:58:34.451Z,68.20
2018-03-30T02:01:00.398Z,68.90
2018-03-30T02:03:26.367Z,69.10
2018-03-30T02:05:52.304Z,70.20
2018-03-30T02:08:19.026Z,72.10
2018-03-30T02:10:45.748Z,72.20
2018-03-30T02:13:11.716Z,72.10
2018-03-30T02:15:37.920Z,70.90
2018-03-30T02:18:03.860Z,70.50
2018-03-30T02:20:29.848Z,70.40
2018-03-30T02:22:55.827Z,70.90
2018-03-30T02:25:21.819Z,70.70
2018-03-30T02:27:47.796Z,70.90
2018-03-30T02:30:13.782Z,71.20
2018-03-30T02:32:39.760Z,70.80
2018-03-30T02:35:05.723Z,70.70
2018-03-30T02:37:31.702Z,70.40
2018-03-30T02:39:57.724Z,70.10
2018-03-30T02:42:23.854Z,70.60
2018-03-30T02:44:49.801Z,70.40
2018-03-30T02:47:15.924Z,70.30
2018-03-30T02:49:42.645Z,70.10
2018-03-30T02:52:08.623Z,70.10
2018-03-30T02:54:34.597Z,70.30
2018-03-30T02:57:00.566Z,70.70
2018-03-30T02:59:26.635Z,71.30
2018-03-30T03:01:52.575Z,71.10
2018-03-30T03:04:18.683Z,71.00
2018-03-30T03:06:45.558Z,70.90
2018-03-30T03:09:12.267Z,71.50
2018-03-30T03:11:38.235Z,71.50
2018-03-30T03:14:04.207Z,71.30
2018-03-30T03:16:30.307Z,71.60
2018-03-30T03:18:56.289Z,71.50
2018-03-30T03:21:22.359Z,71.20
2018-03-30T03:23:48.308Z,71.50
2018-03-30T03:26:14.303Z,72.10
2018-03-30T03:28:40.260Z,73.00
2018-03-30T03:31:06.241Z,73.40
2018-03-30T03:33:32.197Z,74.00
2018-03-30T03:35:58.304Z,74.60
2018-03-30T03:38:24.252Z,75.00
2018-03-30T03:40:50.941Z,75.40
2018-03-30T03:43:17.037Z,75.40
2018-03-30T03:45:42.997Z,75.50
2018-03-30T03:48:09.084Z,76.10
2018-03-30T03:50:35.032Z,77.00
2018-03-30T03:53:01.061Z,77.00
2018-03-30T03:55:27.019Z,77.10
2018-03-30T03:57:52.983Z,76.30
2018-03-30T04:00:18.929Z,75.80
2018-03-30T04:02:44.902Z,75.20
2018-03-30T04:05:11.636Z,75.00
2018-03-30T04:07:38.344Z,74.60
2018-03-30T04:10:04.416Z,74.70
2018-03-30T04:12:30.399Z,74.90
2018-03-30T04:14:56.565Z,75.60
2018-03-30T04:17:22.508Z,77.50
2018-03-30T04:19:48.463Z,77.40
2018-03-30T04:22:14.436Z,76.60
2018-03-30T04:24:40.442Z,77.60
2018-03-30T04:27:06.388Z,77.00
2018-03-30T04:29:32.342Z,76.20
2018-03-30T04:31:58.311Z,75.80
2018-03-30T04:34:25.166Z,75.20
2018-03-30T04:36:51.115Z,75.20
2018-03-30T04:39:17.095Z,74.50
2018-03-30T04:41:43.777Z,74.30
2018-03-30T04:44:09.858Z,74.30
2018-03-30T04:46:36.540Z,73.40
2018-03-30T04:49:02.537Z,73.30
2018-03-30T04:51:28.513Z,73.20
2018-03-30T04:53:56.863Z,73.30
2018-03-30T04:56:22.823Z,73.70
2018-03-30T04:58:48.771Z,73.90
2018-03-30T05:01:14.851Z,75.20
2018-03-30T05:03:40.799Z,75.10
2018-03-30T05:06:06.780Z,74.50
2018-03-30T05:08:32.769Z,74.50
2018-03-30T05:10:58.783Z,74.80
2018-03-30T05:13:25.519Z,75.30
2018-03-30T05:15:52.390Z,75.20
2018-03-30T05:18:18.383Z,75.10
2018-03-30T05:20:45.073Z,74.60
2018-03-30T05:23:11.041Z,74.40
2018-03-30T05:25:37.744Z,74.40
2018-03-30T05:28:03.836Z,74.40
2018-03-30T05:30:29.772Z,74.20
2018-03-30T05:32:55.880Z,74.40
2018-03-30T05:35:21.840Z,75.90
2018-03-30T05:37:47.828Z,76.40
2018-03-30T05:40:13.797Z,76.20
2018-03-30T05:42:39.875Z,76.20
2018-03-30T05:45:05.859Z,76.30
2018-03-30T05:47:31.781Z,76.20
2018-03-30T05:49:58.530Z,75.70
2018-03-30T05:52:25.228Z,75.40
2018-03-30T05:54:51.228Z,75.40
2018-03-30T05:57:17.169Z,75.80
2018-03-30T05:59:43.172Z,75.50
2018-03-30T06:02:09.108Z,75.20
2018-03-30T06:04:35.053Z,75.00
2018-03-30T06:07:01.139Z,74.80
2018-03-30T06:09:27.085Z,74.70
2018-03-30T06:11:53.092Z,74.40
2018-03-30T06:14:19.172Z,74.90
2018-03-30T06:16:45.895Z,75.00
2018-03-30T06:19:11.879Z,75.00
2018-03-30T06:21:37.803Z,75.20
2018-03-30T06:24:03.906Z,75.20
2018-03-30T06:26:29.865Z,75.10
2018-03-30T06:28:55.844Z,75.20
2018-03-30T06:31:21.797Z,76.30
2018-03-30T06:33:47.775Z,77.90
2018-03-30T06:36:14.479Z,77.30
2018-03-30T06:38:40.576Z,77.30
2018-03-30T06:41:07.281Z,79.50
2018-03-30T06:43:34.027Z,80.30
2018-03-30T06:45:59.996Z,80.90
2018-03-30T06:48:26.112Z,80.90
2018-03-30T06:50:52.076Z,82.30
2018-03-30T06:53:18.756Z,83.50
2018-03-30T06:55:45.470Z,83.70
2018-03-30T06:58:12.163Z,83.40
2018-03-30T07:00:38.165Z,83.40
2018-03-30T07:03:04.138Z,83.10
2018-03-30T07:05:30.972Z,82.50
2018-03-30T07:07:56.929Z,82.50
2018-03-30T07:10:22.942Z,82.10
2018-03-30T07:12:48.937Z,82.30
2018-03-30T07:15:15.037Z,82.60
2018-03-30T07:17:41.007Z,82.30
2018-03-30T07:20:07.704Z,82.80
2018-03-30T07:22:33.798Z,82.80
2018-03-30T07:24:59.756Z,82.20
2018-03-30T07:27:25.768Z,81.80
2018-03-30T07:29:51.738Z,81.70
2018-03-30T07:32:18.465Z,81.20
2018-03-30T07:34:45.168Z,81.30
2018-03-30T07:37:11.388Z,81.20
2018-03-30T07:39:37.348Z,81.70
2018-03-30T07:42:03.351Z,80.20
2018-03-30T07:44:29.335Z,80.60
2018-03-30T07:46:55.296Z,80.30
2018-03-30T07:49:21.272Z,79.70
2018-03-30T07:51:47.230Z,80.00
2018-03-30T07:54:13.372Z,78.80
2018-03-30T07:56:39.311Z,78.80
2018-03-30T07:59:06.040Z,78.10
2018-03-30T08:01:32.000Z,78.20
2018-03-30T08:03:58.009Z,77.60
2018-03-30T08:06:24.706Z,77.80
2018-03-30T08:08:50.713Z,77.80
2018-03-30T08:11:16.811Z,77.50
2018-03-30T08:13:42.771Z,77.00
2018-03-30T08:16:09.073Z,76.80
2018-03-30T08:18:35.049Z,77.20
2018-03-30T08:21:01.080Z,76.60
2018-03-30T08:23:27.061Z,76.40
2018-03-30T08:25:53.036Z,75.30
2018-03-30T08:28:19.729Z,74.80
2018-03-30T08:30:45.934Z,74.70
2018-03-30T08:33:11.916Z,73.10
2018-03-30T08:35:38.642Z,72.90
2018-03-30T08:38:04.654Z,72.90
2018-03-30T08:40:30.639Z,72.10
2018-03-30T08:42:56.637Z,71.50
2018-03-30T08:45:23.345Z,71.50
2018-03-30T08:47:49.292Z,71.50
2018-03-30T08:50:16.156Z,70.00
2018-03-30T08:52:42.134Z,70.00
2018-03-30T08:55:08.096Z,69.50
2018-03-30T08:57:34.072Z,69.30
2018-03-30T09:00:00.075Z,66.40
2018-03-30T09:02:26.060Z,66.70
2018-03-30T09:04:52.013Z,66.10
2018-03-30T09:07:18.101Z,65.30
2018-03-30T09:09:44.104Z,65.50
2018-03-30T09:12:10.097Z,63.60
2018-03-30T09:14:36.187Z,63.30
2018-03-30T09:17:02.178Z,62.80
2018-03-30T09:19:28.128Z,62.60
2018-03-30T09:21:54.251Z,61.70
2018-03-30T09:24:20.206Z,60.90
2018-03-30T09:26:46.205Z,60.40
2018-03-30T09:29:12.188Z,61.70
2018-03-30T09:31:38.195Z,61.20
2018-03-30T09:34:04.323Z,60.70
2018-03-30T09:36:30.311Z,60.30
2018-03-30T09:38:56.329Z,58.80
2018-03-30T09:41:22.314Z,57.70
2018-03-30T09:43:49.071Z,58.60
2018-03-30T09:46:15.037Z,58.60
2018-03-30T09:48:41.163Z,58.50
2018-03-30T09:51:07.153Z,57.50
2018-03-30T09:53:33.129Z,56.70
2018-03-30T09:55:59.153Z,57.20
2018-03-30T09:58:25.136Z,56.10
2018-03-30T10:00:51.144Z,55.90
2018-03-30T10:03:17.120Z,56.00
2018-03-30T10:05:43.129Z,55.90
2018-03-30T10:08:09.160Z,55.60
2018-03-30T10:10:35.134Z,56.10
2018-03-30T10:13:01.257Z,55.90
2018-03-30T10:15:27.417Z,56.00
2018-03-30T10:17:53.430Z,53.80
2018-03-30T10:20:19.568Z,53.70
2018-03-30T10:22:46.230Z,53.10
2018-03-30T10:25:12.246Z,52.30
2018-03-30T10:27:38.268Z,52.40
2018-03-30T10:30:04.249Z,51.10
2018-03-30T10:32:30.281Z,50.80
2018-03-30T10:34:56.296Z,50.90
2018-03-30T10:37:22.432Z,50.80
2018-03-30T10:39:48.396Z,50.20
2018-03-30T10:42:15.422Z,50.50
2018-03-30T10:44:42.533Z,50.30
2018-03-30T10:47:09.213Z,48.00
2018-03-30T10:49:36.544Z,46.40
2018-03-30T10:52:02.660Z,46.80
2018-03-30T10:54:28.762Z,47.90
2018-03-30T10:56:54.723Z,46.00
2018-03-30T10:59:20.699Z,46.10
2018-03-30T11:01:47.448Z,45.00
2018-03-30T11:04:13.438Z,45.00
2018-03-30T11:06:39.439Z,44.50
2018-03-30T11:09:05.556Z,43.70
2018-03-30T11:11:31.574Z,44.00
2018-03-30T11:13:57.558Z,42.80
2018-03-30T11:16:24.059Z,44.00
2018-03-30T11:18:50.581Z,43.90
2018-03-30T11:21:16.586Z,43.60
2018-03-30T11:23:42.615Z,43.00
2018-03-30T11:26:08.580Z,43.00
2018-03-30T11:28:35.900Z,43.10
2018-03-30T11:31:01.888Z,43.00
2018-03-30T11:33:27.891Z,41.30
2018-03-30T11:35:54.015Z,42.30
2018-03-30T11:38:20.024Z,41.30
2018-03-30T11:40:46.040Z,40.70
2018-03-30T11:43:12.936Z,39.60
2018-03-30T11:45:38.923Z,39.20
2018-03-30T11:48:05.672Z,41.30
2018-03-30T11:50:32.408Z,40.60
2018-03-30T11:52:59.118Z,40.10
2018-03-30T11:55:25.293Z,40.00
2018-03-30T11:57:51.263Z,40.30
2018-03-30T12:00:17.309Z,40.10
2018-03-30T12:02:43.356Z,40.40
2018-03-30T12:05:10.466Z,39.50
2018-03-30T12:07:36.509Z,40.00
2018-03-30T12:10:03.216Z,40.40
2018-03-30T12:12:29.345Z,40.30
2018-03-30T12:14:55.435Z,40.00
2018-03-30T12:17:21.444Z,42.00
2018-03-30T12:19:47.436Z,40.10
2018-03-30T12:22:14.181Z,40.20
2018-03-30T12:24:40.912Z,40.40
2018-03-30T12:27:07.039Z,40.40
2018-03-30T12:29:33.029Z,40.40
2018-03-30T12:31:59.036Z,39.30
2018-03-30T12:34:25.001Z,39.80
2018-03-30T12:36:51.073Z,40.60
2018-03-30T12:39:17.149Z,39.90
2018-03-30T12:41:43.101Z,38.20
2018-03-30T12:44:09.096Z,39.60
2018-03-30T12:46:35.053Z,37.60
2018-03-30T12:49:01.044Z,37.40
2018-03-30T12:51:27.020Z,37.70
2018-03-30T12:53:52.972Z,38.70
2018-03-30T12:56:19.077Z,39.80
2018-03-30T12:58:45.036Z,38.60
2018-03-30T13:01:11.047Z,37.90
2018-03-30T13:03:37.029Z,38.60
2018-03-30T13:06:03.044Z,39.30
2018-03-30T13:08:29.005Z,38.60
2018-03-30T13:10:55.109Z,38.80
2018-03-30T13:13:21.105Z,39.80
2018-03-30T13:15:47.422Z,39.80
2018-03-30T13:18:14.137Z,38.50
2018-03-30T13:20:40.134Z,38.30
2018-03-30T13:23:06.113Z,37.30
2018-03-30T13:25:32.083Z,37.40
2018-03-30T13:27:58.187Z,37.80
2018-03-30T13:30:24.140Z,37.80
2018-03-30T13:32:50.113Z,36.90
2018-03-30T13:35:16.811Z,39.90
2018-03-30T13:37:42.800Z,39.20
2018-03-30T13:40:08.775Z,37.90
2018-03-30T13:42:35.617Z,37.00
2018-03-30T13:45:02.347Z,39.10
2018-03-30T13:47:28.452Z,39.10
2018-03-30T13:49:55.231Z,38.90
2018-03-30T13:52:21.229Z,38.90
2018-03-30T13:54:47.172Z,38.80
2018-03-30T13:57:13.221Z,39.70
2018-03-30T13:59:39.326Z,40.30
2018-03-30T14:02:06.018Z,40.80
2018-03-30T14:04:32.036Z,40.70
2018-03-30T14:06:57.980Z,41.10
2018-03-30T14:09:23.976Z,41.20
2018-03-30T14:11:49.928Z,41.20
2018-03-30T14:14:16.078Z,42.00
2018-03-30T14:16:42.044Z,42.00
2018-03-30T14:19:08.134Z,43.40
2018-03-30T14:21:34.860Z,43.30
2018-03-30T14:24:01.592Z,43.60
2018-03-30T14:26:27.542Z,43.60
2018-03-30T14:28:53.533Z,42.80
2018-03-30T14:31:19.476Z,43.70
2018-03-30T14:33:45.423Z,44.60
2018-03-30T14:36:11.529Z,43.90
2018-03-30T14:38:37.480Z,43.30
2018-03-30T14:41:03.468Z,44.50
2018-03-30T14:43:29.458Z,43.40
2018-03-30T14:45:55.428Z,42.30
2018-03-30T14:48:21.437Z,42.90
2018-03-30T14:50:47.526Z,42.40
2018-03-30T14:53:13.532Z,43.00
2018-03-30T14:55:39.513Z,44.20
2018-03-30T14:58:05.480Z,44.90
2018-03-30T15:00:32.595Z,41.30
2018-03-30T15:02:58.729Z,41.70
2018-03-30T15:05:24.732Z,41.70
2018-03-30T15:07:50.695Z,41.90
2018-03-30T15:10:16.678Z,42.00
2018-03-30T15:12:42.666Z,41.40
2018-03-30T15:15:08.773Z,41.60
2018-03-30T15:17:34.872Z,41.00
2018-03-30T15:20:00.811Z,41.30
2018-03-30T15:22:26.800Z,41.80
2018-03-30T15:24:52.765Z,42.70
2018-03-30T15:27:18.739Z,42.50
2018-03-30T15:29:44.730Z,42.50
2018-03-30T15:32:10.760Z,43.20
2018-03-30T15:34:36.713Z,43.90
2018-03-30T15:37:02.848Z,42.90
2018-03-30T15:39:28.808Z,43.80
2018-03-30T15:41:54.752Z,43.50
2018-03-30T15:44:21.472Z,44.70
2018-03-30T15:46:47.444Z,44.70
2018-03-30T15:49:13.424Z,44.10
2018-03-30T15:51:39.373Z,44.40
2018-03-30T15:54:06.308Z,44.30
2018-03-30T15:56:33.012Z,44.90
2018-03-30T15:58:59.010Z,44.70
2018-03-30T16:01:25.027Z,44.70
2018-03-30T16:03:50.997Z,45.40
2018-03-30T16:06:16.959Z,45.20
2018-03-30T16:08:43.022Z,44.60
2018-03-30T16:11:09.002Z,45.30
2018-03-30T16:13:34.963Z,45.30
2018-03-30T16:16:01.107Z,45.40
2018-03-30T16:18:27.081Z,45.60
2018-03-30T16:20:53.041Z,45.70
2018-03-30T16:23:19.132Z,45.60
2018-03-30T16:25:45.149Z,45.70
2018-03-30T16:28:11.110Z,46.40
2018-03-30T16:30:37.110Z,46.20
2018-03-30T16:33:03.071Z,46.00
2018-03-30T16:35:29.818Z,46.50
2018-03-30T16:37:55.769Z,46.50
2018-03-30T16:40:21.874Z,47.10
2018-03-30T16:42:48.603Z,47.40
2018-03-30T16:45:14.547Z,47.20
2018-03-30T16:47:41.300Z,49.10
2018-03-30T16:50:07.240Z,49.10
2018-03-30T16:52:33.258Z,50.30
2018-03-30T16:54:59.238Z,50.70
2018-03-30T16:57:26.082Z,50.30
2018-03-30T16:59:52.776Z,51.70
2018-03-30T17:02:18.780Z,51.80
2018-03-30T17:04:44.760Z,52.50
2018-03-30T17:07:11.534Z,55.00
2018-03-30T17:09:37.575Z,55.00
2018-03-30T17:12:03.596Z,54.00
2018-03-30T17:14:29.726Z,54.70
2018-03-30T17:16:55.719Z,55.70
2018-03-30T17:19:22.424Z,60.50
2018-03-30T17:21:48.396Z,60.60
2018-03-30T17:24:14.385Z,64.20
2018-03-30T17:26:41.077Z,72.40
2018-03-30T17:29:07.166Z,72.30
2018-03-30T17:31:33.869Z,76.50
2018-03-30T17:33:59.851Z,76.50
2018-03-30T17:36:25.800Z,78.30
2018-03-30T17:38:51.782Z,80.00
2018-03-30T17:41:17.718Z,79.80
2018-03-30T17:43:43.809Z,82.40
2018-03-30T17:46:10.494Z,84.70
2018-03-30T17:48:36.538Z,84.70
2018-03-30T17:51:02.499Z,85.60
2018-03-30T17:53:29.325Z,86.30
2018-03-30T17:56:03.275Z,87.10
2018-03-30T17:58:29.343Z,87.10
2018-03-30T18:00:56.067Z,87.20
2018-03-30T18:03:22.042Z,87.20
2018-03-30T18:05:47.988Z,87.60
2018-03-30T18:08:13.933Z,87.50
2018-03-30T18:10:39.899Z,87.70
2018-03-30T18:13:06.597Z,87.90
2018-03-30T18:15:32.573Z,87.70
2018-03-30T18:17:58.565Z,88.00
2018-03-30T18:20:25.440Z,88.30
2018-03-30T18:22:51.391Z,88.30
2018-03-30T18:25:17.360Z,88.30
2018-03-30T18:27:43.347Z,90.10
2018-03-30T18:30:09.236Z,90.00
2018-03-30T18:32:35.854Z,90.10
2018-03-30T18:35:01.721Z,90.10
2018-03-30T18:37:27.597Z,90.10
2018-03-30T19:51:22.032Z,89.40
2018-03-30T19:53:47.944Z,88.30
2018-03-30T19:56:13.847Z,88.40
2018-03-30T19:58:39.733Z,86.80
2018-03-30T20:01:05.653Z,87.30
2018-03-30T20:03:31.551Z,88.70
2018-03-30T20:05:57.559Z,88.80
2018-03-30T20:08:23.622Z,89.80
2018-03-30T20:10:49.562Z,89.20
2018-03-30T20:13:15.561Z,89.00
2018-03-30T20:15:41.643Z,87.90
2018-03-30T20:18:07.575Z,87.70
2018-03-30T20:20:33.463Z,87.60
2018-03-30T20:22:59.452Z,87.00
2018-03-30T20:25:25.349Z,86.50
2018-03-30T20:27:51.259Z,86.50
2018-03-30T20:30:17.180Z,86.70
2018-03-30T20:32:43.100Z,85.70
2018-03-30T20:35:09.024Z,85.20
2018-03-30T20:37:34.940Z,84.90
2018-03-30T20:40:00.966Z,84.30
2018-03-30T20:42:26.860Z,83.70
2018-03-30T20:44:52.794Z,83.30
2018-03-30T20:47:18.681Z,84.80
2018-03-30T20:49:44.614Z,86.30
2018-03-30T20:52:10.535Z,86.30
2018-03-30T20:54:36.584Z,86.60
2018-03-30T20:57:02.464Z,88.90
2018-03-30T20:59:28.388Z,89.50
2018-03-30T21:01:54.294Z,89.70
2018-03-30T21:04:20.176Z,89.60
2018-03-30T21:06:46.102Z,90.00
2018-03-30T21:09:12.124Z,90.20
2018-03-30T21:11:38.039Z,90.00
2018-03-30T21:14:03.908Z,90.00
2018-03-30T21:16:29.968Z,90.00
2018-03-30T21:18:55.892Z,90.10
2018-03-30T21:21:22.363Z,90.10
2018-03-30T21:23:49.024Z,90.30
2018-03-30T21:26:15.041Z,90.00
2018-03-30T21:28:40.935Z,89.90
2018-03-30T21:31:06.855Z,90.00
2018-03-30T21:33:33.636Z,90.30
2018-03-30T21:35:59.521Z,90.20
2018-03-30T21:38:26.177Z,90.50
2018-03-30T21:40:52.818Z,90.00
2018-03-30T21:43:18.723Z,90.00
2018-03-30T21:45:45.336Z,89.30
2018-03-30T21:48:11.244Z,89.30
2018-03-30T21:50:37.131Z,89.30
2018-03-30T21:53:03.165Z,88.80
2018-03-30T21:55:29.195Z,88.60
2018-03-30T21:57:55.128Z,88.50
2018-03-30T22:00:21.041Z,88.30
2018-03-30T22:02:46.924Z,88.20
2018-03-30T22:05:12.851Z,88.90
2018-03-30T22:07:38.743Z,88.90
2018-03-30T22:10:05.544Z,89.20
2018-03-30T22:12:31.436Z,89.20
2018-03-30T22:14:57.642Z,89.40
2018-03-30T22:17:24.291Z,88.70
2018-03-30T22:19:50.206Z,88.70
2018-03-30T22:22:16.867Z,89.10
2018-03-30T22:24:42.794Z,89.00
2018-03-30T22:27:08.844Z,89.50
2018-03-30T22:29:34.748Z,89.50
2018-03-30T22:32:00.632Z,90.30
2018-03-30T22:34:26.596Z,90.30
2018-03-30T22:36:52.467Z,90.20
2018-03-30T22:39:18.376Z,90.10
2018-03-30T22:41:44.995Z,89.60
2018-03-30T22:44:11.036Z,89.50
2018-03-30T22:46:37.671Z,88.10
2018-03-30T22:49:03.585Z,88.10
2018-03-30T22:51:29.472Z,87.60
2018-03-30T22:53:55.368Z,87.20
2018-03-30T22:56:21.235Z,87.20
2018-03-30T22:58:47.228Z,87.20
2018-03-30T23:01:13.135Z,85.80
2018-03-30T23:03:39.008Z,85.30
2018-03-30T23:06:04.923Z,84.90
2018-03-30T23:08:30.809Z,84.60
2018-03-30T23:10:56.745Z,84.40
2018-03-30T23:13:22.636Z,84.20
2018-03-30T23:15:48.807Z,84.10
2018-03-30T23:18:14.704Z,84.00
2018-03-30T23:20:40.624Z,83.80
2018-03-30T23:23:06.511Z,83.40
2018-03-30T23:25:32.421Z,83.60
2018-03-30T23:27:59.030Z,84.70
2018-03-30T23:30:25.066Z,84.70
2018-03-30T23:32:51.713Z,85.30
2018-03-30T23:35:18.350Z,85.40
2018-03-30T23:37:45.019Z,85.30
2018-03-30T23:40:10.908Z,85.20
2018-03-30T23:42:37.559Z,84.20
2018-03-30T23:45:04.206Z,84.10
2018-03-30T23:47:30.284Z,84.10
2018-03-30T23:49:56.185Z,83.90
2018-03-30T23:52:22.091Z,83.60
2018-03-30T23:54:47.948Z,83.70
2018-03-30T23:57:13.839Z,83.70
2018-03-30T23:59:39.754Z,83.40
